sensor_id;sensor_type;location;lat;lon;timestamp;pressure;altitude;pressure_sealevel;temperature;humidity
65010;BME280;51556;50.002;22.014;2023-03-22T00:01:16;99237.89;;;8.70;71.62
65010;BME280;51556;50.002;22.014;2023-03-22T00:03:44;99233.50;;;8.70;71.67
65010;BME280;51556;50.002;22.014;2023-03-22T00:06:10;99228.42;;;8.70;71.57
65010;BME280;51556;50.002;22.014;2023-03-22T00:08:36;99231.04;;;8.71;71.68
65010;BME280;51556;50.002;22.014;2023-03-22T00:11:02;99230.35;;;8.69;71.73
65010;BME280;51556;50.002;22.014;2023-03-22T00:13:27;99230.38;;;8.69;71.48
65010;BME280;51556;50.002;22.014;2023-03-22T00:15:54;99229.73;;;8.65;71.74
65010;BME280;51556;50.002;22.014;2023-03-22T00:18:20;99221.77;;;8.60;71.83
65010;BME280;51556;50.002;22.014;2023-03-22T00:20:49;99219.91;;;8.56;71.96
65010;BME280;51556;50.002;22.014;2023-03-22T00:23:15;99214.35;;;8.54;71.81
65010;BME280;51556;50.002;22.014;2023-03-22T00:25:43;99212.23;;;8.55;71.66
65010;BME280;51556;50.002;22.014;2023-03-22T00:28:09;99209.95;;;8.54;71.85
65010;BME280;51556;50.002;22.014;2023-03-22T00:30:35;99210.10;;;8.55;71.78
65010;BME280;51556;50.002;22.014;2023-03-22T00:33:00;99208.23;;;8.54;71.54
65010;BME280;51556;50.002;22.014;2023-03-22T00:35:25;99207.23;;;8.51;71.62
65010;BME280;51556;50.002;22.014;2023-03-22T00:37:51;99209.90;;;8.49;71.51
65010;BME280;51556;50.002;22.014;2023-03-22T00:40:16;99209.42;;;8.46;71.46
65010;BME280;51556;50.002;22.014;2023-03-22T00:42:42;99211.58;;;8.44;71.49
65010;BME280;51556;50.002;22.014;2023-03-22T00:45:09;99207.83;;;8.38;71.37
65010;BME280;51556;50.002;22.014;2023-03-22T00:47:35;99207.04;;;8.33;71.32
65010;BME280;51556;50.002;22.014;2023-03-22T00:50:01;99207.23;;;8.32;71.79
65010;BME280;51556;50.002;22.014;2023-03-22T00:52:27;99206.38;;;8.29;71.52
65010;BME280;51556;50.002;22.014;2023-03-22T00:54:54;99206.77;;;8.26;71.92
65010;BME280;51556;50.002;22.014;2023-03-22T00:57:19;99206.71;;;8.21;71.96
65010;BME280;51556;50.002;22.014;2023-03-22T00:59:45;99210.17;;;8.15;71.98
65010;BME280;51556;50.002;22.014;2023-03-22T01:02:11;99209.20;;;8.10;72.02
65010;BME280;51556;50.002;22.014;2023-03-22T01:04:41;99205.59;;;8.06;72.34
65010;BME280;51556;50.002;22.014;2023-03-22T01:07:11;99206.40;;;8.00;71.96
65010;BME280;51556;50.002;22.014;2023-03-22T01:09:41;99202.59;;;7.96;72.19
65010;BME280;51556;50.002;22.014;2023-03-22T01:12:07;99197.41;;;7.92;72.27
65010;BME280;51556;50.002;22.014;2023-03-22T01:14:32;99197.40;;;7.92;72.65
65010;BME280;51556;50.002;22.014;2023-03-22T01:16:58;99196.36;;;7.92;72.60
65010;BME280;51556;50.002;22.014;2023-03-22T01:19:23;99198.84;;;7.91;72.73
65010;BME280;51556;50.002;22.014;2023-03-22T01:21:49;99194.00;;;7.87;72.44
65010;BME280;51556;50.002;22.014;2023-03-22T01:24:15;99189.91;;;7.80;72.44
65010;BME280;51556;50.002;22.014;2023-03-22T01:26:41;99188.97;;;7.76;73.00
65010;BME280;51556;50.002;22.014;2023-03-22T01:29:06;99188.14;;;7.71;72.75
65010;BME280;51556;50.002;22.014;2023-03-22T01:31:32;99189.25;;;7.68;72.91
65010;BME280;51556;50.002;22.014;2023-03-22T01:33:57;99186.00;;;7.64;72.88
65010;BME280;51556;50.002;22.014;2023-03-22T01:36:22;99184.33;;;7.58;72.64
65010;BME280;51556;50.002;22.014;2023-03-22T01:38:48;99187.08;;;7.51;72.95
65010;BME280;51556;50.002;22.014;2023-03-22T01:41:15;99184.57;;;7.43;72.80
65010;BME280;51556;50.002;22.014;2023-03-22T01:43:41;99181.84;;;7.40;73.21
65010;BME280;51556;50.002;22.014;2023-03-22T01:46:07;99179.95;;;7.37;73.39
65010;BME280;51556;50.002;22.014;2023-03-22T01:48:36;99175.66;;;7.31;73.06
65010;BME280;51556;50.002;22.014;2023-03-22T01:51:12;99173.80;;;7.27;73.25
65010;BME280;51556;50.002;22.014;2023-03-22T01:53:50;99177.89;;;7.23;73.46
65010;BME280;51556;50.002;22.014;2023-03-22T01:56:19;99177.79;;;7.17;73.57
65010;BME280;51556;50.002;22.014;2023-03-22T01:58:47;99178.51;;;7.16;73.73
65010;BME280;51556;50.002;22.014;2023-03-22T02:01:14;99175.85;;;7.18;73.84
65010;BME280;51556;50.002;22.014;2023-03-22T02:04:03;99174.09;;;7.19;73.53
65010;BME280;51556;50.002;22.014;2023-03-22T02:06:27;99171.11;;;7.19;73.81
65010;BME280;51556;50.002;22.014;2023-03-22T02:08:55;99173.04;;;7.19;73.69
65010;BME280;51556;50.002;22.014;2023-03-22T02:11:40;99170.56;;;7.21;74.00
65010;BME280;51556;50.002;22.014;2023-03-22T02:28:40;99167.36;;;7.12;74.07
65010;BME280;51556;50.002;22.014;2023-03-22T02:44:44;99163.70;;;6.74;74.22
65010;BME280;51556;50.002;22.014;2023-03-22T02:49:58;99165.27;;;6.75;74.51
65010;BME280;51556;50.002;22.014;2023-03-22T02:52:43;99164.41;;;6.72;74.62
65010;BME280;51556;50.002;22.014;2023-03-22T02:55:44;99162.79;;;6.77;74.59
65010;BME280;51556;50.002;22.014;2023-03-22T02:58:18;99163.77;;;6.81;74.55
65010;BME280;51556;50.002;22.014;2023-03-22T03:00:49;99162.57;;;6.80;74.36
65010;BME280;51556;50.002;22.014;2023-03-22T03:03:17;99158.55;;;6.80;74.46
65010;BME280;51556;50.002;22.014;2023-03-22T03:05:49;99162.77;;;6.79;74.33
65010;BME280;51556;50.002;22.014;2023-03-22T03:08:18;99159.30;;;6.76;74.42
65010;BME280;51556;50.002;22.014;2023-03-22T03:10:45;99162.16;;;6.71;74.58
65010;BME280;51556;50.002;22.014;2023-03-22T03:13:16;99167.38;;;6.73;74.57
65010;BME280;51556;50.002;22.014;2023-03-22T03:15:43;99167.02;;;6.74;74.57
65010;BME280;51556;50.002;22.014;2023-03-22T03:23:50;99170.67;;;6.75;74.50
65010;BME280;51556;50.002;22.014;2023-03-22T03:29:02;99164.91;;;6.74;74.79
65010;BME280;51556;50.002;22.014;2023-03-22T03:34:32;99173.61;;;6.78;74.99
65010;BME280;51556;50.002;22.014;2023-03-22T03:37:13;99172.60;;;6.75;74.69
65010;BME280;51556;50.002;22.014;2023-03-22T03:39:57;99182.27;;;6.70;74.89
65010;BME280;51556;50.002;22.014;2023-03-22T03:42:26;99185.48;;;6.68;75.03
65010;BME280;51556;50.002;22.014;2023-03-22T03:44:52;99186.44;;;6.61;74.75
65010;BME280;51556;50.002;22.014;2023-03-22T03:47:19;99183.65;;;6.61;75.27
65010;BME280;51556;50.002;22.014;2023-03-22T03:49:45;99188.13;;;6.66;75.30
65010;BME280;51556;50.002;22.014;2023-03-22T03:52:10;99187.05;;;6.68;75.33
65010;BME280;51556;50.002;22.014;2023-03-22T03:54:37;99188.06;;;6.70;75.21
65010;BME280;51556;50.002;22.014;2023-03-22T03:57:03;99188.90;;;6.74;75.25
65010;BME280;51556;50.002;22.014;2023-03-22T03:59:28;99191.67;;;6.74;75.11
65010;BME280;51556;50.002;22.014;2023-03-22T04:01:53;99192.35;;;6.77;75.19
65010;BME280;51556;50.002;22.014;2023-03-22T04:04:25;99190.38;;;6.81;75.37
65010;BME280;51556;50.002;22.014;2023-03-22T04:06:53;99185.77;;;6.85;75.22
65010;BME280;51556;50.002;22.014;2023-03-22T04:09:22;99185.39;;;6.88;75.06
65010;BME280;51556;50.002;22.014;2023-03-22T04:11:47;99186.27;;;6.88;75.05
65010;BME280;51556;50.002;22.014;2023-03-22T04:14:12;99188.54;;;6.88;75.01
65010;BME280;51556;50.002;22.014;2023-03-22T04:16:38;99192.05;;;6.86;74.97
65010;BME280;51556;50.002;22.014;2023-03-22T04:19:03;99190.48;;;6.87;74.76
65010;BME280;51556;50.002;22.014;2023-03-22T04:21:29;99191.34;;;6.88;74.76
65010;BME280;51556;50.002;22.014;2023-03-22T04:23:54;99189.94;;;6.88;74.75
65010;BME280;51556;50.002;22.014;2023-03-22T04:26:20;99189.24;;;6.88;74.86
65010;BME280;51556;50.002;22.014;2023-03-22T04:28:45;99185.77;;;6.85;74.95
65010;BME280;51556;50.002;22.014;2023-03-22T04:31:11;99185.79;;;6.84;74.85
65010;BME280;51556;50.002;22.014;2023-03-22T04:33:36;99184.40;;;6.83;74.85
65010;BME280;51556;50.002;22.014;2023-03-22T04:36:07;99190.88;;;6.83;74.65
65010;BME280;51556;50.002;22.014;2023-03-22T04:38:40;99193.86;;;6.82;74.76
65010;BME280;51556;50.002;22.014;2023-03-22T04:41:07;99189.29;;;6.84;74.91
65010;BME280;51556;50.002;22.014;2023-03-22T04:43:33;99188.92;;;6.85;74.98
65010;BME280;51556;50.002;22.014;2023-03-22T04:46:06;99190.86;;;6.84;74.93
65010;BME280;51556;50.002;22.014;2023-03-22T04:48:38;99192.29;;;6.82;74.87
65010;BME280;51556;50.002;22.014;2023-03-22T04:51:06;99193.34;;;6.82;75.00
65010;BME280;51556;50.002;22.014;2023-03-22T04:53:32;99188.77;;;6.83;75.13
65010;BME280;51556;50.002;22.014;2023-03-22T04:56:04;99190.14;;;6.86;75.00
65010;BME280;51556;50.002;22.014;2023-03-22T04:58:31;99190.11;;;6.87;74.90
65010;BME280;51556;50.002;22.014;2023-03-22T05:00:57;99187.80;;;6.91;75.00
65010;BME280;51556;50.002;22.014;2023-03-22T05:03:22;99188.13;;;6.93;75.11
65010;BME280;51556;50.002;22.014;2023-03-22T05:05:53;99187.01;;;6.98;75.20
65010;BME280;51556;50.002;22.014;2023-03-22T05:08:20;99183.23;;;7.05;75.13
65010;BME280;51556;50.002;22.014;2023-03-22T05:10:45;99187.00;;;7.10;75.13
65010;BME280;51556;50.002;22.014;2023-03-22T05:13:11;99183.29;;;7.12;75.26
65010;BME280;51556;50.002;22.014;2023-03-22T05:15:39;99183.27;;;7.13;75.24
65010;BME280;51556;50.002;22.014;2023-03-22T05:18:06;99184.21;;;7.09;75.42
65010;BME280;51556;50.002;22.014;2023-03-22T05:20:31;99182.56;;;7.03;75.71
65010;BME280;51556;50.002;22.014;2023-03-22T05:22:57;99181.22;;;6.99;75.86
65010;BME280;51556;50.002;22.014;2023-03-22T05:25:22;99178.62;;;6.97;75.91
65010;BME280;51556;50.002;22.014;2023-03-22T05:27:48;99184.25;;;6.95;76.24
65010;BME280;51556;50.002;22.014;2023-03-22T05:30:15;99186.71;;;6.94;76.17
65010;BME280;51556;50.002;22.014;2023-03-22T05:32:40;99188.14;;;6.92;76.39
65010;BME280;51556;50.002;22.014;2023-03-22T05:35:09;99192.70;;;6.90;76.28
65010;BME280;51556;50.002;22.014;2023-03-22T05:37:34;99194.28;;;6.90;76.38
65010;BME280;51556;50.002;22.014;2023-03-22T05:40:01;99194.47;;;6.89;76.09
65010;BME280;51556;50.002;22.014;2023-03-22T05:42:26;99197.59;;;6.77;76.58
65010;BME280;51556;50.002;22.014;2023-03-22T05:44:52;99200.91;;;6.65;76.74
65010;BME280;51556;50.002;22.014;2023-03-22T05:47:17;99201.15;;;6.60;77.20
65010;BME280;51556;50.002;22.014;2023-03-22T05:49:43;99204.98;;;6.61;77.18
65010;BME280;51556;50.002;22.014;2023-03-22T05:52:08;99202.73;;;6.59;77.38
65010;BME280;51556;50.002;22.014;2023-03-22T05:54:33;99203.67;;;6.52;77.36
65010;BME280;51556;50.002;22.014;2023-03-22T05:56:59;99201.39;;;6.54;77.56
65010;BME280;51556;50.002;22.014;2023-03-22T05:59:26;99201.89;;;6.56;77.38
65010;BME280;51556;50.002;22.014;2023-03-22T06:01:51;99199.57;;;6.60;77.55
65010;BME280;51556;50.002;22.014;2023-03-22T06:04:17;99206.86;;;6.65;77.39
65010;BME280;51556;50.002;22.014;2023-03-22T06:06:42;99209.23;;;6.69;77.63
65010;BME280;51556;50.002;22.014;2023-03-22T06:09:08;99213.19;;;6.75;77.75
65010;BME280;51556;50.002;22.014;2023-03-22T06:11:33;99217.00;;;6.78;77.21
65010;BME280;51556;50.002;22.014;2023-03-22T06:13:59;99215.09;;;6.77;77.09
65010;BME280;51556;50.002;22.014;2023-03-22T06:16:25;99216.84;;;6.76;76.96
65010;BME280;51556;50.002;22.014;2023-03-22T06:18:51;99214.23;;;6.75;76.92
65010;BME280;51556;50.002;22.014;2023-03-22T06:21:16;99218.67;;;6.70;76.74
65010;BME280;51556;50.002;22.014;2023-03-22T06:23:42;99217.30;;;6.68;76.85
65010;BME280;51556;50.002;22.014;2023-03-22T06:26:08;99224.44;;;6.69;77.03
65010;BME280;51556;50.002;22.014;2023-03-22T06:28:36;99222.14;;;6.73;77.24
65010;BME280;51556;50.002;22.014;2023-03-22T06:31:08;99222.98;;;6.75;76.84
65010;BME280;51556;50.002;22.014;2023-03-22T06:33:35;99224.04;;;6.75;76.90
65010;BME280;51556;50.002;22.014;2023-03-22T06:36:02;99226.61;;;6.79;76.93
65010;BME280;51556;50.002;22.014;2023-03-22T06:38:28;99230.28;;;6.80;76.76
65010;BME280;51556;50.002;22.014;2023-03-22T06:40:54;99236.56;;;6.81;76.91
65010;BME280;51556;50.002;22.014;2023-03-22T06:43:20;99236.89;;;6.83;76.82
65010;BME280;51556;50.002;22.014;2023-03-22T06:45:47;99236.21;;;6.81;76.60
65010;BME280;51556;50.002;22.014;2023-03-22T06:48:13;99237.25;;;6.82;77.13
65010;BME280;51556;50.002;22.014;2023-03-22T06:50:39;99240.52;;;6.87;77.12
65010;BME280;51556;50.002;22.014;2023-03-22T06:53:06;99239.20;;;6.94;77.09
65010;BME280;51556;50.002;22.014;2023-03-22T06:55:32;99237.20;;;7.00;76.80
65010;BME280;51556;50.002;22.014;2023-03-22T06:58:02;99237.07;;;7.08;76.99
65010;BME280;51556;50.002;22.014;2023-03-22T07:00:28;99232.80;;;7.13;76.96
65010;BME280;51556;50.002;22.014;2023-03-22T07:02:54;99230.80;;;7.19;76.79
65010;BME280;51556;50.002;22.014;2023-03-22T07:05:19;99235.83;;;7.23;76.64
65010;BME280;51556;50.002;22.014;2023-03-22T07:07:45;99235.88;;;7.19;76.15
65010;BME280;51556;50.002;22.014;2023-03-22T07:10:11;99232.54;;;7.20;76.41
65010;BME280;51556;50.002;22.014;2023-03-22T07:12:37;99234.98;;;7.21;76.55
65010;BME280;51556;50.002;22.014;2023-03-22T07:15:03;99236.98;;;7.28;76.58
65010;BME280;51556;50.002;22.014;2023-03-22T07:17:29;99236.85;;;7.37;76.40
65010;BME280;51556;50.002;22.014;2023-03-22T07:19:54;99238.88;;;7.42;76.13
65010;BME280;51556;50.002;22.014;2023-03-22T07:22:20;99235.53;;;7.32;76.05
65010;BME280;51556;50.002;22.014;2023-03-22T07:24:47;99234.66;;;7.31;76.69
65010;BME280;51556;50.002;22.014;2023-03-22T07:27:13;99234.33;;;7.42;76.62
65010;BME280;51556;50.002;22.014;2023-03-22T07:29:39;99232.18;;;7.45;76.14
65010;BME280;51556;50.002;22.014;2023-03-22T07:32:05;99234.28;;;7.45;76.80
65010;BME280;51556;50.002;22.014;2023-03-22T07:34:30;99235.01;;;7.55;76.66
65010;BME280;51556;50.002;22.014;2023-03-22T07:36:56;99232.23;;;7.65;76.85
65010;BME280;51556;50.002;22.014;2023-03-22T07:39:21;99229.23;;;7.76;76.78
65010;BME280;51556;50.002;22.014;2023-03-22T07:41:49;99226.39;;;7.89;76.57
65010;BME280;51556;50.002;22.014;2023-03-22T07:44:15;99222.97;;;7.95;76.22
65010;BME280;51556;50.002;22.014;2023-03-22T07:46:41;99226.30;;;8.05;75.90
65010;BME280;51556;50.002;22.014;2023-03-22T07:49:06;99223.11;;;8.17;75.87
65010;BME280;51556;50.002;22.014;2023-03-22T07:51:31;99227.75;;;8.21;75.36
65010;BME280;51556;50.002;22.014;2023-03-22T07:53:57;99223.86;;;8.14;75.32
65010;BME280;51556;50.002;22.014;2023-03-22T07:56:22;99221.86;;;8.08;75.81
65010;BME280;51556;50.002;22.014;2023-03-22T07:58:48;99221.61;;;8.02;75.68
65010;BME280;51556;50.002;22.014;2023-03-22T08:01:13;99220.00;;;7.94;75.80
65010;BME280;51556;50.002;22.014;2023-03-22T08:03:39;99222.17;;;7.89;76.12
65010;BME280;51556;50.002;22.014;2023-03-22T08:06:05;99219.92;;;7.88;76.80
65010;BME280;51556;50.002;22.014;2023-03-22T08:08:33;99220.36;;;8.04;76.66
65010;BME280;51556;50.002;22.014;2023-03-22T08:10:58;99218.08;;;8.23;76.35
65010;BME280;51556;50.002;22.014;2023-03-22T08:13:23;99220.97;;;8.38;76.70
65010;BME280;51556;50.002;22.014;2023-03-22T08:15:50;99222.66;;;8.42;75.67
65010;BME280;51556;50.002;22.014;2023-03-22T08:18:15;99220.15;;;8.45;75.65
65010;BME280;51556;50.002;22.014;2023-03-22T08:20:41;99223.69;;;8.52;75.87
65010;BME280;51556;50.002;22.014;2023-03-22T08:23:10;99219.05;;;8.56;75.48
65010;BME280;51556;50.002;22.014;2023-03-22T08:25:43;99216.99;;;8.71;75.99
65010;BME280;51556;50.002;22.014;2023-03-22T08:28:09;99214.91;;;8.87;75.61
65010;BME280;51556;50.002;22.014;2023-03-22T08:30:35;99215.95;;;8.95;74.65
65010;BME280;51556;50.002;22.014;2023-03-22T08:33:00;99211.23;;;9.02;74.40
65010;BME280;51556;50.002;22.014;2023-03-22T08:35:26;99212.09;;;9.12;74.20
65010;BME280;51556;50.002;22.014;2023-03-22T08:37:55;99211.70;;;9.29;73.99
65010;BME280;51556;50.002;22.014;2023-03-22T08:40:20;99211.66;;;9.46;73.81
65010;BME280;51556;50.002;22.014;2023-03-22T08:42:48;99208.20;;;9.59;73.66
65010;BME280;51556;50.002;22.014;2023-03-22T08:45:14;99207.71;;;9.71;73.31
65010;BME280;51556;50.002;22.014;2023-03-22T08:47:39;99208.19;;;9.80;72.63
65010;BME280;51556;50.002;22.014;2023-03-22T08:50:06;99205.67;;;9.82;72.37
65010;BME280;51556;50.002;22.014;2023-03-22T08:52:32;99208.35;;;9.88;72.13
65010;BME280;51556;50.002;22.014;2023-03-22T08:54:57;99208.05;;;9.93;72.24
65010;BME280;51556;50.002;22.014;2023-03-22T08:57:23;99205.11;;;9.98;71.84
65010;BME280;51556;50.002;22.014;2023-03-22T08:59:52;99202.45;;;10.05;71.55
65010;BME280;51556;50.002;22.014;2023-03-22T09:02:17;99199.32;;;10.18;71.71
65010;BME280;51556;50.002;22.014;2023-03-22T09:04:43;99197.14;;;10.34;71.43
65010;BME280;51556;50.002;22.014;2023-03-22T09:07:09;99195.02;;;10.47;71.26
65010;BME280;51556;50.002;22.014;2023-03-22T09:09:34;99192.13;;;10.56;70.62
65010;BME280;51556;50.002;22.014;2023-03-22T09:12:00;99193.02;;;10.62;70.20
65010;BME280;51556;50.002;22.014;2023-03-22T09:14:25;99193.86;;;10.69;70.16
65010;BME280;51556;50.002;22.014;2023-03-22T09:16:51;99191.24;;;10.75;70.30
65010;BME280;51556;50.002;22.014;2023-03-22T09:19:16;99189.02;;;10.84;69.93
65010;BME280;51556;50.002;22.014;2023-03-22T09:21:42;99187.91;;;10.92;70.19
65010;BME280;51556;50.002;22.014;2023-03-22T09:24:07;99187.09;;;11.02;69.68
65010;BME280;51556;50.002;22.014;2023-03-22T09:26:33;99181.45;;;11.14;69.44
65010;BME280;51556;50.002;22.014;2023-03-22T09:28:58;99184.88;;;11.22;68.36
65010;BME280;51556;50.002;22.014;2023-03-22T09:31:24;99183.16;;;11.26;68.43
65010;BME280;51556;50.002;22.014;2023-03-22T09:33:50;99179.80;;;11.32;68.30
65010;BME280;51556;50.002;22.014;2023-03-22T09:36:16;99181.77;;;11.43;67.97
65010;BME280;51556;50.002;22.014;2023-03-22T09:38:41;99173.82;;;11.50;67.40
65010;BME280;51556;50.002;22.014;2023-03-22T09:41:37;99172.20;;;11.55;67.30
65010;BME280;51556;50.002;22.014;2023-03-22T09:44:16;99172.69;;;11.67;67.52
65010;BME280;51556;50.002;22.014;2023-03-22T09:46:48;99168.14;;;11.78;66.20
65010;BME280;51556;50.002;22.014;2023-03-22T09:49:18;99167.58;;;11.84;66.57
65010;BME280;51556;50.002;22.014;2023-03-22T09:51:48;99163.45;;;11.96;66.27
65010;BME280;51556;50.002;22.014;2023-03-22T09:54:47;99153.26;;;12.00;64.97
65010;BME280;51556;50.002;22.014;2023-03-22T10:05:37;99141.63;;;12.54;64.30
65010;BME280;51556;50.002;22.014;2023-03-22T10:08:13;99138.59;;;12.68;64.43
65010;BME280;51556;50.002;22.014;2023-03-22T10:10:43;99137.35;;;12.88;64.07
65010;BME280;51556;50.002;22.014;2023-03-22T10:15:40;99128.54;;;13.19;62.90
65010;BME280;51556;50.002;22.014;2023-03-22T10:18:42;99121.50;;;13.40;62.10
65010;BME280;51556;50.002;22.014;2023-03-22T10:21:13;99113.91;;;13.57;60.24
65010;BME280;51556;50.002;22.014;2023-03-22T10:24:01;99110.92;;;13.69;60.27
65010;BME280;51556;50.002;22.014;2023-03-22T10:26:33;99105.29;;;13.80;57.82
65010;BME280;51556;50.002;22.014;2023-03-22T10:29:08;99101.88;;;13.86;56.36
65010;BME280;51556;50.002;22.014;2023-03-22T10:31:38;99100.41;;;13.87;56.22
65010;BME280;51556;50.002;22.014;2023-03-22T10:34:25;99102.89;;;13.91;56.07
65010;BME280;51556;50.002;22.014;2023-03-22T10:37:00;99101.27;;;13.96;55.56
65010;BME280;51556;50.002;22.014;2023-03-22T10:39:44;99093.57;;;14.06;55.83
65010;BME280;51556;50.002;22.014;2023-03-22T10:42:20;99095.58;;;14.28;56.12
65010;BME280;51556;50.002;22.014;2023-03-22T10:44:49;99089.47;;;14.47;55.31
65010;BME280;51556;50.002;22.014;2023-03-22T10:47:19;99085.73;;;14.66;54.64
65010;BME280;51556;50.002;22.014;2023-03-22T10:49:51;99090.59;;;14.80;52.97
65010;BME280;51556;50.002;22.014;2023-03-22T10:52:35;99083.65;;;14.95;53.59
65010;BME280;51556;50.002;22.014;2023-03-22T10:55:08;99080.59;;;15.15;52.28
65010;BME280;51556;50.002;22.014;2023-03-22T10:57:34;99076.50;;;15.29;49.30
65010;BME280;51556;50.002;22.014;2023-03-22T11:00:03;99073.48;;;15.32;49.77
65010;BME280;51556;50.002;22.014;2023-03-22T11:02:32;99066.52;;;15.45;49.81
65010;BME280;51556;50.002;22.014;2023-03-22T11:05:04;99061.17;;;15.56;49.45
65010;BME280;51556;50.002;22.014;2023-03-22T11:12:41;99055.59;;;15.75;46.83
65010;BME280;51556;50.002;22.014;2023-03-22T11:15:30;99055.70;;;15.86;47.24
65010;BME280;51556;50.002;22.014;2023-03-22T11:17:59;99059.90;;;16.04;45.31
65010;BME280;51556;50.002;22.014;2023-03-22T11:20:26;99056.77;;;16.20;46.40
65010;BME280;51556;50.002;22.014;2023-03-22T11:22:51;99052.03;;;16.42;44.75
65010;BME280;51556;50.002;22.014;2023-03-22T11:25:31;99049.48;;;16.59;45.38
65010;BME280;51556;50.002;22.014;2023-03-22T11:30:31;99045.79;;;16.94;42.77
65010;BME280;51556;50.002;22.014;2023-03-22T11:33:21;99045.98;;;17.15;42.87
65010;BME280;51556;50.002;22.014;2023-03-22T11:39:06;99045.30;;;17.58;41.09
65010;BME280;51556;50.002;22.014;2023-03-22T11:41:36;99042.48;;;17.73;41.42
65010;BME280;51556;50.002;22.014;2023-03-22T11:44:05;99034.57;;;17.85;40.67
65010;BME280;51556;50.002;22.014;2023-03-22T11:46:33;99034.16;;;17.98;39.66
65010;BME280;51556;50.002;22.014;2023-03-22T11:49:03;99031.66;;;18.10;38.70
65010;BME280;51556;50.002;22.014;2023-03-22T11:51:36;99031.36;;;18.06;39.22
65010;BME280;51556;50.002;22.014;2023-03-22T11:54:13;99025.14;;;18.12;39.28
65010;BME280;51556;50.002;22.014;2023-03-22T11:56:44;99023.27;;;18.27;39.32
65010;BME280;51556;50.002;22.014;2023-03-22T11:59:28;99020.65;;;18.29;38.80
